Terminal Aerodrome Forecast
Issued by NWS Charleston, WV

Home | Current Version | Previous Version | Text Only | Print | Product List | Glossary On
Versions: 1 2 3 4 5 6 7 8 9 10 11 12 13 14 15 16 17 18 19 20 21 22 23 24 25 26 27 28 29 30 31 32 33 34 35 36 37
904
FTUS41 KRLX 292110 AAA
TAFHTS
TAF AMD
KHTS 292110Z 2921/3018 20004KT P6SM SCT050
     FM300600 00000KT 1SM BR BKN001
     FM301400 00000KT 4SM BR BKN030
     FM301500 VRB03KT P6SM VCTS BKN040CB=

USA.gov is the U.S. government's official web portal to all federal, state and local government web resources and services.